GLE weather

Gainesville Municipal Airport
Gainesville, Texas, United States

Public forecast

Using degrees Fahrenheit for public forecast. Weather courtesy of forecast.io.

Current aviation weather report (METAR) for Gainesville Municipal Airport

Retrieved 2020/05/27 05:35 UTC (9 minutes ago):

KGLE 270535Z AUTO 00000KT 10SM CLR 16/16 A2993 RMK AO2 T01600160 PWINO

Closest aviation forecast (TAF) to Gainesville Municipal Airport

Closest forecast is Fort Worth Alliance Airport, 40.3 nm (74.7 km) S. Retrieved 2020-05-27 00:42 UTC (5 hours ago):

TAF KAFW 262340Z 2700/2724 30008KT P6SM SCT050 BKN120 FM270200 36004KT P6SM BKN160 FM271200 34004KT P6SM BKN100 FM272200 23006KT P6SM VCTS BKN050CB